createdAt,value
2018-05-31T00:02:19.481Z,12.57
2018-05-31T00:04:51.883Z,12.50
2018-05-31T00:07:24.724Z,11.87
2018-05-31T00:09:57.140Z,13.37
2018-05-31T00:12:29.423Z,13.27
2018-05-31T00:15:03.475Z,11.67
2018-05-31T00:17:36.728Z,13.07
2018-05-31T00:20:09.049Z,12.20
2018-05-31T00:22:42.515Z,12.63
2018-05-31T00:25:15.057Z,15.03
2018-05-31T00:27:47.693Z,10.87
2018-05-31T00:30:20.580Z,12.70
2018-05-31T00:32:52.974Z,11.77
2018-05-31T00:35:25.330Z,11.27
2018-05-31T00:37:58.072Z,14.03
2018-05-31T00:40:30.936Z,14.77
2018-05-31T00:43:03.389Z,12.60
2018-05-31T00:45:36.515Z,11.27
2018-05-31T00:48:09.296Z,16.30
2018-05-31T00:50:45.600Z,11.33
2018-05-31T00:53:19.530Z,10.17
2018-05-31T00:56:18.030Z,9.80
2018-05-31T00:58:50.480Z,12.50
2018-05-31T01:01:22.864Z,10.97
2018-05-31T01:03:55.200Z,11.13
2018-05-31T01:06:27.894Z,9.30
2018-05-31T01:09:01.531Z,11.43
2018-05-31T01:11:34.092Z,12.63
2018-05-31T01:14:06.751Z,11.50
2018-05-31T01:20:04.363Z,10.63
2018-05-31T01:22:36.926Z,11.00
2018-05-31T01:25:09.231Z,15.07
2018-05-31T01:27:42.349Z,13.15
2018-05-31T01:30:16.624Z,11.33
2018-05-31T01:32:48.979Z,13.18
2018-05-31T01:35:21.725Z,11.50
2018-05-31T01:38:33.597Z,12.27
2018-05-31T01:41:05.979Z,12.90
2018-05-31T01:43:40.792Z,13.40
2018-05-31T01:46:13.024Z,16.63
2018-05-31T01:48:46.279Z,12.83
2018-05-31T01:51:18.957Z,13.83
2018-05-31T01:53:51.250Z,12.63
2018-05-31T01:56:23.404Z,10.33
2018-05-31T01:58:56.086Z,17.70
2018-05-31T02:01:28.173Z,18.13
2018-05-31T02:04:01.214Z,15.73
2018-05-31T02:06:33.753Z,16.33
2018-05-31T02:09:06.237Z,13.33
2018-05-31T02:11:40.582Z,14.40
2018-05-31T02:14:13.378Z,12.43
2018-05-31T02:16:46.337Z,13.57
2018-05-31T02:19:18.554Z,15.37
2018-05-31T02:21:51.817Z,11.27
2018-05-31T02:24:24.757Z,16.30
2018-05-31T02:26:58.590Z,16.37
2018-05-31T02:29:31.717Z,15.30
2018-05-31T02:32:04.321Z,12.80
2018-05-31T02:34:37.268Z,13.67
2018-05-31T02:37:09.990Z,12.93
2018-05-31T02:39:42.651Z,13.17
2018-05-31T02:42:14.885Z,15.60
2018-05-31T02:44:47.797Z,13.37
2018-05-31T02:47:19.957Z,12.20
2018-05-31T02:49:52.125Z,12.60
2018-05-31T02:52:24.569Z,12.13
2018-05-31T02:54:56.799Z,12.03
2018-05-31T02:57:28.924Z,11.30
2018-05-31T03:00:03.715Z,11.33
2018-05-31T03:02:36.038Z,13.23
2018-05-31T03:05:08.358Z,10.07
2018-05-31T03:07:41.578Z,11.00
2018-05-31T03:10:14.001Z,9.00
2018-05-31T03:12:46.361Z,12.23
2018-05-31T03:15:19.243Z,9.93
2018-05-31T03:17:53.011Z,10.50
2018-05-31T03:20:25.307Z,14.07
2018-05-31T03:22:58.302Z,15.37
2018-05-31T03:25:30.925Z,15.37
2018-05-31T03:28:03.069Z,15.17
2018-05-31T03:30:35.696Z,12.77
2018-05-31T03:33:07.966Z,13.83
2018-05-31T03:35:40.140Z,15.80
2018-05-31T03:38:12.336Z,16.80
2018-05-31T03:40:44.474Z,14.73
2018-05-31T03:43:17.037Z,13.20
2018-05-31T03:45:50.414Z,13.13
2018-05-31T03:48:22.726Z,12.10
2018-05-31T03:50:58.006Z,13.37
2018-05-31T03:53:30.693Z,13.53
2018-05-31T03:56:02.921Z,14.97
2018-05-31T03:58:35.981Z,13.15
2018-05-31T04:01:08.629Z,13.55
2018-05-31T04:03:41.246Z,12.07
2018-05-31T04:06:14.112Z,12.97
2018-05-31T04:08:46.593Z,13.17
2018-05-31T04:11:20.265Z,13.13
2018-05-31T04:13:53.653Z,12.65
2018-05-31T04:16:26.257Z,11.00
2018-05-31T04:18:58.838Z,12.00
2018-05-31T04:21:31.604Z,13.05
2018-05-31T04:24:03.861Z,11.13
2018-05-31T04:26:36.407Z,12.10
2018-05-31T04:29:08.787Z,13.70
2018-05-31T04:31:41.880Z,13.40
2018-05-31T04:34:14.352Z,12.40
2018-05-31T04:36:46.786Z,12.93
2018-05-31T04:39:19.685Z,11.80
2018-05-31T04:41:52.601Z,13.83
2018-05-31T04:44:26.003Z,13.77
2018-05-31T04:46:59.378Z,13.37
2018-05-31T04:49:33.235Z,12.70
2018-05-31T04:52:05.623Z,11.37
2018-05-31T04:54:38.540Z,10.30
2018-05-31T04:57:11.932Z,9.50
2018-05-31T04:59:44.132Z,11.68
2018-05-31T05:02:16.743Z,12.50
2018-05-31T05:04:50.269Z,15.07
2018-05-31T05:07:22.772Z,10.20
2018-05-31T05:09:55.606Z,10.50
2018-05-31T05:12:28.093Z,7.80
2018-05-31T05:15:00.819Z,11.00
2018-05-31T05:17:36.092Z,8.63
2018-05-31T05:20:08.718Z,9.63
2018-05-31T05:22:41.019Z,12.70
2018-05-31T05:25:13.652Z,10.83
2018-05-31T05:27:45.972Z,10.90
2018-05-31T05:30:18.727Z,9.17
2018-05-31T05:32:51.568Z,7.50
2018-05-31T05:35:24.323Z,7.60
2018-05-31T05:37:58.112Z,7.03
2018-05-31T05:40:30.803Z,9.00
2018-05-31T05:43:07.185Z,6.90
2018-05-31T05:45:40.441Z,5.53
2018-05-31T05:48:13.256Z,5.43
2018-05-31T05:50:45.611Z,6.63
2018-05-31T05:53:18.300Z,6.73
2018-05-31T05:55:50.902Z,8.40
2018-05-31T05:58:23.326Z,8.63
2018-05-31T06:02:20.705Z,5.10
2018-05-31T06:04:53.348Z,5.60
2018-05-31T06:07:25.889Z,6.97
2018-05-31T06:09:59.024Z,6.93
2018-05-31T06:12:32.373Z,5.95
2018-05-31T06:15:06.832Z,4.90
2018-05-31T06:17:39.404Z,5.20
2018-05-31T06:20:12.245Z,6.50
2018-05-31T06:22:44.625Z,5.83
2018-05-31T06:25:17.033Z,6.63
2018-05-31T06:27:49.607Z,5.80
2018-05-31T06:30:22.398Z,6.23
2018-05-31T06:32:55.203Z,6.10
2018-05-31T06:35:28.181Z,5.63
2018-05-31T06:38:03.109Z,4.77
2018-05-31T06:40:36.454Z,6.27
2018-05-31T06:43:10.201Z,6.73
2018-05-31T06:45:42.777Z,4.70
2018-05-31T06:48:15.544Z,6.73
2018-05-31T06:50:51.484Z,6.27
2018-05-31T06:53:23.955Z,5.05
2018-05-31T06:55:57.283Z,5.67
2018-05-31T06:58:29.937Z,4.70
2018-05-31T07:01:05.142Z,3.57
2018-05-31T07:03:38.145Z,5.28
2018-05-31T07:06:10.782Z,5.27
2018-05-31T07:08:43.304Z,5.60
2018-05-31T07:11:16.473Z,5.27
2018-05-31T07:13:49.101Z,3.50
2018-05-31T07:16:22.554Z,3.33
2018-05-31T07:18:56.108Z,6.00
2018-05-31T07:21:28.628Z,6.43
2018-05-31T07:24:01.040Z,4.00
2018-05-31T07:26:33.800Z,6.12
2018-05-31T07:29:06.708Z,4.77
2018-05-31T07:31:40.360Z,5.90
2018-05-31T07:34:13.235Z,5.37
2018-05-31T07:36:46.184Z,4.17
2018-05-31T07:39:19.448Z,5.03
2018-05-31T07:41:52.415Z,4.00
2018-05-31T07:44:25.339Z,7.93
2018-05-31T07:46:57.981Z,4.37
2018-05-31T07:49:30.648Z,4.20
2018-05-31T07:52:03.317Z,4.60
2018-05-31T07:54:35.832Z,6.77
2018-05-31T07:57:09.672Z,5.03
2018-05-31T07:59:42.205Z,3.60
2018-05-31T08:02:14.882Z,5.23
2018-05-31T08:04:47.872Z,7.37
2018-05-31T08:07:21.574Z,8.10
2018-05-31T08:09:54.504Z,7.27
2018-05-31T08:12:27.697Z,4.73
2018-05-31T08:15:00.089Z,6.32
2018-05-31T08:17:36.091Z,3.97
2018-05-31T08:20:08.998Z,8.03
2018-05-31T08:22:41.648Z,7.20
2018-05-31T08:25:14.574Z,7.30
2018-05-31T08:27:47.715Z,5.03
2018-05-31T08:30:22.506Z,4.30
2018-05-31T08:32:55.344Z,5.37
2018-05-31T08:35:28.524Z,4.80
2018-05-31T08:38:01.205Z,3.50
2018-05-31T08:40:33.720Z,7.70
2018-05-31T08:43:06.784Z,3.77
2018-05-31T08:45:39.331Z,5.53
2018-05-31T08:48:11.825Z,3.20
2018-05-31T08:50:45.990Z,8.80
2018-05-31T08:53:20.327Z,3.50
2018-05-31T08:55:53.637Z,5.60
2018-05-31T08:58:26.965Z,4.83
2018-05-31T09:00:59.487Z,3.90
2018-05-31T09:03:32.104Z,5.43
2018-05-31T09:06:04.888Z,6.83
2018-05-31T09:08:40.151Z,3.93
2018-05-31T09:11:12.710Z,3.10
2018-05-31T09:13:46.045Z,4.60
2018-05-31T09:16:21.516Z,3.97
2018-05-31T09:18:55.593Z,4.43
2018-05-31T09:21:29.472Z,4.93
2018-05-31T09:24:02.386Z,5.97
2018-05-31T09:26:35.109Z,4.57
2018-05-31T09:29:08.062Z,5.23
2018-05-31T09:31:40.445Z,5.40
2018-05-31T09:34:13.017Z,5.20
2018-05-31T09:36:47.021Z,3.90
2018-05-31T09:39:21.493Z,6.57
2018-05-31T09:41:54.249Z,5.62
2018-05-31T09:44:27.576Z,5.80
2018-05-31T09:47:00.317Z,4.47
2018-05-31T09:49:33.865Z,5.27
2018-05-31T09:52:08.319Z,4.75
2018-05-31T09:54:41.521Z,3.37
2018-05-31T09:57:14.240Z,5.80
2018-05-31T09:59:46.767Z,6.10
2018-05-31T10:02:20.120Z,4.70
2018-05-31T10:04:54.413Z,4.83
2018-05-31T10:07:29.757Z,7.87
2018-05-31T10:10:03.360Z,9.47
2018-05-31T10:12:36.339Z,5.53
2018-05-31T10:15:09.277Z,5.67
2018-05-31T10:17:43.261Z,4.85
2018-05-31T10:20:27.799Z,5.87
2018-05-31T10:23:05.543Z,8.90
2018-05-31T10:25:44.077Z,4.47
2018-05-31T10:28:24.937Z,4.10
2018-05-31T10:31:02.531Z,5.10
2018-05-31T10:33:39.946Z,4.27
2018-05-31T10:36:17.649Z,5.50
2018-05-31T10:38:55.165Z,4.73
2018-05-31T10:41:33.487Z,6.60
2018-05-31T10:44:11.153Z,5.27
2018-05-31T10:46:44.226Z,4.87
2018-05-31T10:49:16.960Z,6.10
2018-05-31T10:51:51.085Z,6.00
2018-05-31T10:54:25.856Z,6.90
2018-05-31T10:56:58.794Z,6.33
2018-05-31T10:59:32.444Z,4.60
2018-05-31T11:02:05.692Z,4.23
2018-05-31T11:04:38.682Z,5.67
2018-05-31T11:07:11.980Z,6.20
2018-05-31T11:09:44.940Z,5.63
2018-05-31T11:12:17.803Z,9.00
2018-05-31T11:14:50.702Z,6.07
2018-05-31T11:17:23.845Z,6.17
2018-05-31T11:19:56.568Z,5.17
2018-05-31T11:22:32.575Z,6.73
2018-05-31T11:25:06.602Z,4.87
2018-05-31T11:27:39.960Z,5.17
2018-05-31T11:30:14.888Z,5.03
2018-05-31T11:32:47.395Z,6.40
2018-05-31T11:35:20.471Z,6.67
2018-05-31T11:37:53.022Z,8.23
2018-05-31T11:40:25.509Z,4.07
2018-05-31T11:42:59.382Z,6.77
2018-05-31T11:45:37.300Z,8.47
2018-05-31T11:48:10.074Z,7.53
2018-05-31T11:50:43.132Z,6.93
2018-05-31T11:53:17.244Z,8.40
2018-05-31T11:55:49.828Z,8.23
2018-05-31T11:58:22.597Z,5.50
2018-05-31T12:00:55.253Z,5.50
2018-05-31T12:03:28.904Z,6.60
2018-05-31T12:06:02.437Z,7.47
2018-05-31T12:08:39.421Z,7.00
2018-05-31T12:11:11.856Z,11.47
2018-05-31T12:13:44.898Z,7.77
2018-05-31T12:16:17.660Z,9.57
2018-05-31T12:18:51.364Z,6.47
2018-05-31T12:21:24.762Z,9.53
2018-05-31T12:23:58.270Z,10.33
2018-05-31T12:26:36.748Z,8.83
2018-05-31T12:29:10.172Z,11.40
2018-05-31T12:31:43.355Z,8.30
2018-05-31T12:34:15.868Z,8.93
2018-05-31T12:36:48.282Z,10.17
2018-05-31T12:39:21.264Z,9.70
2018-05-31T12:41:56.995Z,8.07
2018-05-31T12:44:29.385Z,8.40
2018-05-31T12:47:02.290Z,13.03
2018-05-31T12:49:35.998Z,9.17
2018-05-31T12:52:10.137Z,8.23
2018-05-31T12:54:47.189Z,7.07
2018-05-31T12:57:20.079Z,7.17
2018-05-31T12:59:52.772Z,6.60
2018-05-31T13:02:25.500Z,6.23
2018-05-31T13:04:58.201Z,6.07
2018-05-31T13:07:30.968Z,6.47
2018-05-31T13:10:04.018Z,7.97
2018-05-31T13:12:39.509Z,4.30
2018-05-31T13:15:15.558Z,6.50
2018-05-31T13:17:49.037Z,9.00
2018-05-31T13:20:21.594Z,4.83
2018-05-31T13:22:54.172Z,5.50
2018-05-31T13:25:28.852Z,7.47
2018-05-31T13:28:01.980Z,6.77
2018-05-31T13:30:36.188Z,7.57
2018-05-31T13:33:10.413Z,14.37
2018-05-31T13:35:46.166Z,9.63
2018-05-31T13:38:19.085Z,10.07
2018-05-31T13:40:53.217Z,8.50
2018-05-31T13:43:26.732Z,5.33
2018-05-31T13:46:00.487Z,4.50
2018-05-31T13:48:32.992Z,6.40
2018-05-31T13:51:05.644Z,6.27
2018-05-31T13:53:38.209Z,7.07
2018-05-31T13:56:11.593Z,5.67
2018-05-31T13:58:51.404Z,5.20
2018-05-31T14:01:24.445Z,6.83
2018-05-31T14:03:58.574Z,7.23
2018-05-31T14:06:36.197Z,9.97
2018-05-31T14:09:13.601Z,6.10
2018-05-31T14:11:54.829Z,5.47
2018-05-31T14:14:27.861Z,5.97
2018-05-31T14:17:03.049Z,8.67
2018-05-31T14:19:38.328Z,6.03
2018-05-31T14:22:11.669Z,8.47
2018-05-31T14:24:50.270Z,5.40
2018-05-31T14:27:26.141Z,5.27
2018-05-31T14:29:58.849Z,5.93
2018-05-31T14:32:32.093Z,6.30
2018-05-31T14:35:07.532Z,4.10
2018-05-31T14:37:40.279Z,5.72
2018-05-31T14:40:13.582Z,5.23
2018-05-31T14:42:52.081Z,5.63
2018-05-31T14:45:25.182Z,6.45
2018-05-31T14:47:58.448Z,4.17
2018-05-31T14:50:30.929Z,6.23
2018-05-31T14:53:03.572Z,5.32
2018-05-31T14:55:36.593Z,5.27
2018-05-31T14:58:09.873Z,7.27
2018-05-31T15:00:44.785Z,5.17
2018-05-31T15:03:19.233Z,4.03
2018-05-31T15:05:55.791Z,4.63
2018-05-31T15:08:28.483Z,4.37
2018-05-31T15:11:02.348Z,7.00
2018-05-31T15:13:34.964Z,5.18
2018-05-31T15:16:07.709Z,6.33
2018-05-31T15:18:40.939Z,4.90
2018-05-31T15:21:14.085Z,4.67
2018-05-31T15:23:50.068Z,5.13
2018-05-31T15:26:24.994Z,4.90
2018-05-31T15:28:57.956Z,4.80
2018-05-31T15:31:30.646Z,4.70
2018-05-31T15:34:03.757Z,5.17
2018-05-31T15:36:36.714Z,5.27
2018-05-31T15:39:09.350Z,5.50
2018-05-31T15:41:43.017Z,5.17
2018-05-31T15:44:15.948Z,4.00
2018-05-31T15:46:49.385Z,5.20
2018-05-31T15:49:24.324Z,5.87
2018-05-31T15:52:00.583Z,5.93
2018-05-31T15:54:33.495Z,5.00
2018-05-31T15:57:06.633Z,6.00
2018-05-31T15:59:39.128Z,5.23
2018-05-31T16:02:11.758Z,4.30
2018-05-31T16:04:44.777Z,4.33
2018-05-31T16:07:17.254Z,4.70
2018-05-31T16:09:55.156Z,7.40
2018-05-31T16:12:28.637Z,6.80
2018-05-31T16:15:05.154Z,7.77
2018-05-31T16:17:37.865Z,8.00
2018-05-31T16:20:12.965Z,6.47
2018-05-31T16:22:46.594Z,8.40
2018-05-31T16:25:19.097Z,6.00
2018-05-31T16:27:54.102Z,8.30
2018-05-31T16:30:27.931Z,10.47
2018-05-31T16:33:07.365Z,7.23
2018-05-31T16:35:40.495Z,5.17
2018-05-31T16:38:14.195Z,8.23
2018-05-31T16:40:46.631Z,8.23
2018-05-31T16:43:20.992Z,7.13
2018-05-31T16:45:55.528Z,8.97
2018-05-31T16:48:29.334Z,8.10
2018-05-31T16:51:05.621Z,8.20
2018-05-31T16:53:38.206Z,8.73
2018-05-31T16:56:10.782Z,7.23
2018-05-31T16:58:44.759Z,8.40
2018-05-31T17:01:17.365Z,8.83
2018-05-31T17:03:50.030Z,7.60
2018-05-31T17:06:23.149Z,6.60
2018-05-31T17:08:59.659Z,7.33
2018-05-31T17:11:33.589Z,8.27
2018-05-31T17:14:07.861Z,7.47
2018-05-31T17:16:41.203Z,7.00
2018-05-31T17:19:13.877Z,5.37
2018-05-31T17:21:46.630Z,7.43
2018-05-31T17:24:19.420Z,7.90
2018-05-31T17:26:52.166Z,7.17
2018-05-31T17:29:25.517Z,6.13
2018-05-31T17:32:04.814Z,7.57
2018-05-31T17:34:37.477Z,6.00
2018-05-31T17:37:10.478Z,5.17
2018-05-31T17:39:42.950Z,7.40
2018-05-31T17:42:15.550Z,7.00
2018-05-31T17:44:48.217Z,8.48
2018-05-31T17:47:21.128Z,7.72
2018-05-31T17:49:54.267Z,7.57
2018-05-31T17:52:27.681Z,10.57
2018-05-31T17:55:06.552Z,10.57
2018-05-31T17:57:39.145Z,9.57
2018-05-31T18:00:13.870Z,10.40
2018-05-31T18:02:47.617Z,14.97
2018-05-31T18:05:20.264Z,12.27
2018-05-31T18:07:53.691Z,11.77
2018-05-31T18:10:29.191Z,13.50
2018-05-31T18:13:12.331Z,11.90
2018-05-31T18:15:46.614Z,11.20
2018-05-31T18:18:21.804Z,10.77
2018-05-31T18:20:55.951Z,12.80
2018-05-31T18:23:29.729Z,12.40
2018-05-31T18:26:06.037Z,10.93
2018-05-31T18:28:38.771Z,14.10
2018-05-31T18:31:13.289Z,11.90
2018-05-31T18:33:46.709Z,11.97
2018-05-31T18:36:19.713Z,11.90
2018-05-31T18:38:52.453Z,12.97
2018-05-31T18:41:25.361Z,11.73
2018-05-31T18:43:58.881Z,12.50
2018-05-31T18:46:31.824Z,11.47
2018-05-31T18:49:05.712Z,13.07
2018-05-31T18:51:38.356Z,13.90
2018-05-31T18:54:11.107Z,14.57
2018-05-31T18:56:43.751Z,13.87
2018-05-31T18:59:16.577Z,12.10
2018-05-31T19:01:49.181Z,13.70
2018-05-31T19:04:22.254Z,12.87
2018-05-31T19:06:54.670Z,13.57
2018-05-31T19:09:36.653Z,13.77
2018-05-31T19:12:09.155Z,13.33
2018-05-31T19:14:42.197Z,13.97
2018-05-31T19:17:15.099Z,16.73
2018-05-31T19:19:58.412Z,13.80
2018-05-31T19:22:30.958Z,12.00
2018-05-31T19:25:09.073Z,12.23
2018-05-31T19:27:41.737Z,11.50
2018-05-31T19:30:36.390Z,12.73
2018-05-31T19:33:09.054Z,12.00
2018-05-31T19:36:01.184Z,11.50
2018-05-31T19:38:33.809Z,12.18
2018-05-31T19:41:09.237Z,12.33
2018-05-31T19:44:03.486Z,11.70
2018-05-31T19:46:47.941Z,12.00
2018-05-31T19:49:20.827Z,11.87
2018-05-31T19:52:13.284Z,13.13
2018-05-31T19:54:46.143Z,11.87
2018-05-31T19:57:18.901Z,12.93
2018-05-31T20:00:12.682Z,12.67
2018-05-31T20:03:02.548Z,12.63
2018-05-31T20:05:36.264Z,12.20
2018-05-31T20:08:09.703Z,12.83
2018-05-31T20:10:42.255Z,14.20
2018-05-31T20:13:15.501Z,13.17
2018-05-31T20:15:47.928Z,12.47
2018-05-31T20:18:20.770Z,12.27
2018-05-31T20:20:54.204Z,13.27
2018-05-31T20:23:28.359Z,12.97
2018-05-31T20:26:01.236Z,12.83
2018-05-31T20:28:34.933Z,13.37
2018-05-31T20:31:07.588Z,15.23
2018-05-31T20:33:41.559Z,13.67
2018-05-31T20:36:15.241Z,16.17
2018-05-31T20:38:49.141Z,17.83
2018-05-31T20:41:21.980Z,12.97
2018-05-31T20:43:54.984Z,13.60
2018-05-31T20:46:27.510Z,13.90
2018-05-31T20:49:00.158Z,11.93
2018-05-31T20:51:35.679Z,14.73
2018-05-31T20:54:09.574Z,14.77
2018-05-31T20:56:42.257Z,14.87
2018-05-31T20:59:15.520Z,13.88
2018-05-31T21:01:48.493Z,14.50
2018-05-31T21:04:21.937Z,13.60
2018-05-31T21:06:55.917Z,15.53
2018-05-31T21:09:29.117Z,15.83
2018-05-31T21:12:01.654Z,20.03
2018-05-31T21:14:34.885Z,15.87
2018-05-31T21:17:07.651Z,15.83
2018-05-31T21:19:40.448Z,19.23
2018-05-31T21:22:13.834Z,20.63
2018-05-31T21:24:49.095Z,16.90
2018-05-31T21:27:22.662Z,20.57
2018-05-31T21:29:55.641Z,20.27
2018-05-31T21:32:28.178Z,17.40
2018-05-31T21:35:00.763Z,19.57
2018-05-31T21:37:34.901Z,19.43
2018-05-31T21:40:07.825Z,21.23
2018-05-31T21:42:40.297Z,21.03
2018-05-31T21:45:16.430Z,19.67
2018-05-31T21:47:50.814Z,18.60
2018-05-31T21:50:23.842Z,19.20
2018-05-31T21:52:58.836Z,16.90
2018-05-31T21:55:32.780Z,17.27
2018-05-31T21:58:06.740Z,15.63
2018-05-31T22:00:55.759Z,16.83
2018-05-31T22:03:30.518Z,19.53
2018-05-31T22:06:04.813Z,19.77
2018-05-31T22:08:38.850Z,16.17
2018-05-31T22:11:12.821Z,17.10
2018-05-31T22:13:46.396Z,20.37
2018-05-31T22:16:22.323Z,16.47
2018-05-31T22:18:55.322Z,17.43
2018-05-31T22:21:33.131Z,22.97
2018-05-31T22:24:08.256Z,24.23
2018-05-31T22:26:41.102Z,23.53
2018-05-31T22:29:13.910Z,26.63
2018-05-31T22:31:46.945Z,23.47
2018-05-31T22:34:20.118Z,27.50
2018-05-31T22:36:52.870Z,29.93
2018-05-31T22:39:25.970Z,26.13
2018-05-31T22:41:58.873Z,26.00
2018-05-31T22:44:34.277Z,31.02
2018-05-31T22:47:07.434Z,26.17
2018-05-31T22:49:41.650Z,24.80
2018-05-31T22:52:14.649Z,27.83
2018-05-31T22:54:48.118Z,27.77
2018-05-31T22:57:21.456Z,27.58
2018-05-31T22:59:55.232Z,28.53
2018-05-31T23:02:28.033Z,20.93
2018-05-31T23:05:02.963Z,21.60
2018-05-31T23:07:35.804Z,24.83
2018-05-31T23:10:08.378Z,23.67
2018-05-31T23:12:41.757Z,22.93
2018-05-31T23:15:16.774Z,25.53
2018-05-31T23:17:49.699Z,26.37
2018-05-31T23:20:22.761Z,28.17
2018-05-31T23:22:55.483Z,30.77
2018-05-31T23:25:28.081Z,30.57
2018-05-31T23:28:01.218Z,33.97
2018-05-31T23:30:34.053Z,28.27
2018-05-31T23:33:06.677Z,34.20
2018-05-31T23:35:40.017Z,30.53
2018-05-31T23:38:13.151Z,29.53
2018-05-31T23:40:46.632Z,39.73
2018-05-31T23:43:19.807Z,32.97
2018-05-31T23:45:52.999Z,34.90
2018-05-31T23:48:25.729Z,26.93
2018-05-31T23:50:59.319Z,31.67
2018-05-31T23:53:32.641Z,28.03
2018-05-31T23:56:05.273Z,29.40
2018-05-31T23:58:39.471Z,29.50
